createdAt,value
2019-05-20T00:01:29.270Z,11.07
2019-05-20T00:04:00.073Z,10.97
2019-05-20T00:06:31.914Z,11.10
2019-05-20T00:09:04.640Z,11.27
2019-05-20T00:11:35.365Z,11.47
2019-05-20T00:14:06.259Z,10.63
2019-05-20T00:16:47.087Z,11.18
2019-05-20T00:19:17.871Z,11.80
2019-05-20T00:21:48.645Z,10.30
2019-05-20T00:24:19.370Z,10.77
2019-05-20T00:26:50.167Z,10.93
2019-05-20T00:29:21.035Z,15.10
2019-05-20T00:31:51.715Z,10.00
2019-05-20T00:34:34.703Z,11.22
2019-05-20T00:36:55.038Z,10.27
2019-05-20T00:39:25.709Z,12.90
2019-05-20T00:41:56.459Z,10.67
2019-05-20T00:44:27.188Z,11.23
2019-05-20T00:47:01.066Z,10.30
2019-05-20T00:49:31.929Z,11.23
2019-05-20T00:52:02.635Z,11.40
2019-05-20T00:54:33.282Z,10.97
2019-05-20T00:57:06.818Z,11.23
2019-05-20T00:59:37.622Z,11.73
2019-05-20T01:02:08.428Z,10.00
2019-05-20T01:04:39.193Z,10.33
2019-05-20T01:07:09.912Z,10.07
2019-05-20T01:09:40.652Z,11.23
2019-05-20T01:12:11.856Z,10.70
2019-05-20T01:14:43.600Z,10.83
2019-05-20T01:17:14.265Z,10.63
2019-05-20T01:19:45.041Z,10.13
2019-05-20T01:22:19.052Z,11.43
2019-05-20T01:24:49.962Z,10.17
2019-05-20T01:27:20.752Z,10.40
2019-05-20T01:30:02.109Z,10.67
2019-05-20T01:32:35.206Z,11.20
2019-05-20T01:35:06.573Z,11.27
2019-05-20T01:37:37.342Z,10.50
2019-05-20T01:40:08.464Z,10.73
2019-05-20T01:42:39.234Z,10.83
2019-05-20T01:45:10.888Z,10.40
2019-05-20T01:47:41.612Z,10.70
2019-05-20T01:50:12.429Z,10.43
2019-05-20T01:52:43.243Z,10.90
2019-05-20T01:55:15.654Z,10.67
2019-05-20T01:57:46.447Z,10.73
2019-05-20T02:00:17.297Z,10.93
2019-05-20T02:02:48.142Z,11.13
2019-05-20T02:05:19.066Z,10.68
2019-05-20T02:07:49.898Z,11.83
2019-05-20T02:10:20.940Z,11.43
2019-05-20T02:12:51.812Z,12.40
2019-05-20T02:15:29.027Z,14.83
2019-05-20T02:17:59.711Z,11.40
2019-05-20T02:20:30.579Z,12.63
2019-05-20T02:23:16.702Z,11.50
2019-05-20T02:25:49.248Z,11.73
2019-05-20T02:28:19.952Z,14.03
2019-05-20T02:30:50.722Z,12.27
2019-05-20T02:33:21.395Z,12.47
2019-05-20T02:35:52.179Z,12.63
2019-05-20T02:38:22.933Z,12.53
2019-05-20T02:40:53.678Z,12.33
2019-05-20T02:43:24.442Z,12.63
2019-05-20T02:45:55.268Z,12.05
2019-05-20T02:48:26.054Z,13.67
2019-05-20T02:50:56.843Z,11.83
2019-05-20T02:53:27.639Z,13.33
2019-05-20T02:55:58.399Z,11.73
2019-05-20T02:58:29.124Z,12.40
2019-05-20T03:00:59.976Z,12.63
2019-05-20T03:03:30.754Z,12.87
2019-05-20T03:06:01.447Z,12.23
2019-05-20T03:08:32.670Z,13.23
2019-05-20T03:11:03.534Z,12.87
2019-05-20T03:13:34.266Z,14.23
2019-05-20T03:16:05.188Z,13.17
2019-05-20T03:18:35.950Z,13.37
2019-05-20T03:21:06.827Z,13.70
2019-05-20T03:23:37.788Z,14.30
2019-05-20T03:26:08.486Z,13.83
2019-05-20T03:28:39.236Z,13.00
2019-05-20T03:31:10.218Z,13.00
2019-05-20T03:33:40.913Z,13.40
2019-05-20T03:36:11.578Z,14.30
2019-05-20T03:38:42.220Z,14.13
2019-05-20T03:41:12.968Z,13.45
2019-05-20T03:43:43.645Z,13.20
2019-05-20T03:46:14.390Z,13.80
2019-05-20T03:48:45.199Z,13.90
2019-05-20T03:51:15.970Z,15.53
2019-05-20T03:53:46.653Z,13.43
2019-05-20T03:56:17.417Z,15.20
2019-05-20T03:58:48.430Z,13.33
2019-05-20T04:01:19.246Z,14.73
2019-05-20T04:03:49.993Z,13.97
2019-05-20T04:06:20.717Z,14.73
2019-05-20T04:08:51.486Z,13.87
2019-05-20T04:11:22.171Z,13.03
2019-05-20T04:13:52.810Z,12.43
2019-05-20T04:16:23.624Z,12.83
2019-05-20T04:18:55.347Z,12.60
2019-05-20T04:21:26.154Z,13.40
2019-05-20T04:24:01.020Z,12.93
2019-05-20T04:26:29.499Z,11.70
2019-05-20T04:29:01.449Z,15.53
2019-05-20T04:31:32.338Z,12.50
2019-05-20T04:34:03.066Z,12.90
2019-05-20T04:36:33.775Z,12.50
2019-05-20T04:39:06.549Z,12.80
2019-05-20T04:41:37.323Z,13.20
2019-05-20T04:44:08.099Z,12.07
2019-05-20T04:46:39.364Z,13.25
2019-05-20T04:49:10.060Z,11.37
2019-05-20T04:51:40.789Z,12.80
2019-05-20T04:54:11.522Z,12.35
2019-05-20T04:56:42.287Z,14.03
2019-05-20T04:59:12.945Z,11.25
2019-05-20T05:01:43.645Z,11.20
2019-05-20T05:04:14.413Z,11.87
2019-05-20T05:06:45.442Z,11.20
2019-05-20T05:09:16.130Z,12.98
2019-05-20T05:11:46.932Z,11.20
2019-05-20T05:14:17.713Z,11.63
2019-05-20T05:16:48.540Z,11.38
2019-05-20T05:19:19.356Z,11.73
2019-05-20T05:21:50.349Z,12.40
2019-05-20T05:24:21.127Z,12.43
2019-05-20T05:26:51.893Z,13.03
2019-05-20T05:29:22.744Z,11.53
2019-05-20T05:31:53.555Z,11.73
2019-05-20T05:34:24.530Z,11.80
2019-05-20T05:36:55.386Z,11.60
2019-05-20T05:39:26.189Z,11.73
2019-05-20T05:41:56.997Z,11.10
2019-05-20T05:44:27.763Z,10.80
2019-05-20T05:46:58.589Z,13.50
2019-05-20T05:49:29.369Z,15.60
2019-05-20T05:52:00.075Z,13.40
2019-05-20T05:54:30.866Z,13.00
2019-05-20T05:57:01.659Z,11.70
2019-05-20T05:59:32.601Z,12.03
2019-05-20T06:02:03.448Z,10.67
2019-05-20T06:04:34.247Z,14.53
2019-05-20T06:07:05.905Z,11.93
2019-05-20T06:09:36.670Z,16.63
2019-05-20T06:12:07.474Z,15.27
2019-05-20T06:14:38.330Z,14.67
2019-05-20T06:17:09.166Z,15.75
2019-05-20T06:19:41.053Z,15.07
2019-05-20T06:22:14.474Z,15.93
2019-05-20T06:24:44.261Z,15.30
2019-05-20T06:27:15.030Z,15.40
2019-05-20T06:29:45.905Z,15.47
2019-05-20T06:32:16.781Z,14.90
2019-05-20T06:34:47.706Z,15.33
2019-05-20T06:37:20.364Z,16.77
2019-05-20T06:39:51.442Z,15.43
2019-05-20T06:42:22.305Z,17.43
2019-05-20T06:44:58.055Z,14.50
2019-05-20T06:47:32.853Z,14.40
2019-05-20T06:50:06.810Z,14.53
2019-05-20T06:52:37.747Z,14.77
2019-05-20T06:55:09.444Z,14.27
2019-05-20T06:57:40.674Z,13.97
2019-05-20T07:00:12.735Z,15.95
2019-05-20T07:02:43.473Z,15.90
2019-05-20T07:05:15.866Z,17.40
2019-05-20T07:07:46.725Z,14.33
2019-05-20T07:10:17.613Z,15.45
2019-05-20T07:12:48.478Z,14.23
2019-05-20T07:15:19.384Z,16.80
2019-05-20T07:17:50.143Z,16.47
2019-05-20T07:20:20.901Z,14.80
2019-05-20T07:22:55.585Z,16.07
2019-05-20T07:25:24.500Z,14.83
2019-05-20T07:27:55.433Z,15.57
2019-05-20T07:30:26.378Z,14.87
2019-05-20T07:32:57.258Z,15.47
2019-05-20T07:35:30.745Z,15.23
2019-05-20T07:38:00.558Z,15.30
2019-05-20T07:40:32.992Z,14.00
2019-05-20T07:43:04.705Z,13.87
2019-05-20T07:45:35.986Z,15.33
2019-05-20T07:48:06.885Z,14.23
2019-05-20T07:50:39.030Z,14.53
2019-05-20T07:53:10.980Z,15.07
2019-05-20T07:55:51.329Z,15.37
2019-05-20T07:58:23.188Z,16.30
2019-05-20T08:00:53.973Z,16.60
2019-05-20T08:03:24.987Z,18.03
2019-05-20T08:05:55.692Z,18.70
2019-05-20T08:08:26.694Z,16.43
2019-05-20T08:10:57.427Z,15.33
2019-05-20T08:13:28.276Z,15.63
2019-05-20T08:15:59.149Z,16.67
2019-05-20T08:18:29.949Z,17.10
2019-05-20T08:21:00.744Z,16.10
2019-05-20T08:23:31.803Z,17.73
2019-05-20T08:26:02.529Z,17.33
2019-05-20T08:28:33.392Z,18.67
2019-05-20T08:31:05.451Z,17.55
2019-05-20T08:33:36.480Z,16.93
2019-05-20T08:36:07.319Z,16.50
2019-05-20T08:38:38.194Z,17.70
2019-05-20T08:41:08.993Z,17.17
2019-05-20T08:43:39.730Z,17.40
2019-05-20T08:46:10.492Z,16.90
2019-05-20T08:48:41.327Z,16.77
2019-05-20T08:51:12.010Z,17.50
2019-05-20T08:53:42.774Z,18.97
2019-05-20T08:56:13.625Z,18.63
2019-05-20T08:58:44.362Z,16.67
2019-05-20T09:01:16.128Z,16.57
2019-05-20T09:03:46.939Z,18.10
2019-05-20T09:06:20.579Z,16.95
2019-05-20T09:08:50.153Z,18.63
2019-05-20T09:11:20.903Z,19.03
2019-05-20T09:13:51.796Z,16.60
2019-05-20T09:16:22.712Z,19.73
2019-05-20T09:18:53.495Z,17.20
2019-05-20T09:21:24.235Z,17.50
2019-05-20T09:23:54.950Z,17.20
2019-05-20T09:26:25.659Z,16.90
2019-05-20T09:28:56.531Z,15.90
2019-05-20T09:31:29.002Z,16.07
2019-05-20T09:34:00.769Z,16.37
2019-05-20T09:36:31.678Z,17.10
2019-05-20T09:39:02.481Z,16.00
2019-05-20T09:41:34.925Z,16.33
2019-05-20T09:44:06.011Z,17.23
2019-05-20T09:46:36.884Z,17.13
2019-05-20T09:49:07.751Z,18.73
2019-05-20T09:51:38.537Z,16.37
2019-05-20T09:54:09.338Z,17.30
2019-05-20T09:56:40.245Z,15.53
2019-05-20T09:59:14.222Z,16.42
2019-05-20T10:01:45.291Z,16.17
2019-05-20T10:04:16.085Z,16.30
2019-05-20T10:06:47.142Z,20.67
2019-05-20T10:09:17.923Z,15.35
2019-05-20T10:11:48.749Z,16.47
2019-05-20T10:14:19.513Z,15.40
2019-05-20T10:16:50.295Z,16.07
2019-05-20T10:19:21.028Z,16.47
2019-05-20T10:21:52.878Z,15.23
2019-05-20T10:24:23.637Z,14.83
2019-05-20T10:26:55.299Z,17.10
2019-05-20T10:29:26.278Z,15.73
2019-05-20T10:31:57.078Z,16.03
2019-05-20T10:34:27.978Z,16.33
2019-05-20T10:36:58.816Z,16.27
2019-05-20T10:39:29.526Z,17.90
2019-05-20T10:42:00.325Z,17.00
2019-05-20T10:44:31.064Z,16.17
2019-05-20T10:47:01.790Z,16.50
2019-05-20T10:49:32.565Z,16.77
2019-05-20T10:52:03.299Z,16.10
2019-05-20T10:54:34.096Z,16.57
2019-05-20T10:57:05.006Z,17.83
2019-05-20T10:59:36.877Z,17.13
2019-05-20T11:02:09.533Z,17.67
2019-05-20T11:04:40.373Z,20.17
2019-05-20T11:07:11.183Z,16.23
2019-05-20T11:09:42.045Z,16.67
2019-05-20T11:12:13.774Z,17.00
2019-05-20T11:14:44.560Z,19.60
2019-05-20T11:17:15.594Z,18.98
2019-05-20T11:19:46.382Z,17.63
2019-05-20T11:22:17.030Z,18.73
2019-05-20T11:24:47.704Z,16.67
2019-05-20T11:27:18.490Z,18.30
2019-05-20T11:29:49.214Z,17.00
2019-05-20T11:32:19.942Z,17.90
2019-05-20T11:34:50.652Z,17.90
2019-05-20T11:37:21.410Z,16.87
2019-05-20T11:39:52.184Z,18.33
2019-05-20T11:42:22.920Z,16.13
2019-05-20T11:44:53.839Z,22.67
2019-05-20T11:47:24.602Z,16.97
2019-05-20T11:49:55.301Z,18.10
2019-05-20T11:52:26.046Z,17.37
2019-05-20T11:54:56.857Z,16.10
2019-05-20T11:57:28.673Z,17.03
2019-05-20T11:59:59.419Z,16.73
2019-05-20T12:02:30.271Z,16.20
2019-05-20T12:05:01.780Z,16.33
2019-05-20T12:07:32.756Z,15.53
2019-05-20T12:10:04.104Z,17.63
2019-05-20T12:12:34.945Z,16.17
2019-05-20T12:15:06.809Z,17.70
2019-05-20T12:17:39.360Z,14.80
2019-05-20T12:20:12.398Z,14.70
2019-05-20T12:22:42.836Z,15.03
2019-05-20T12:25:13.672Z,14.80
2019-05-20T12:27:45.229Z,14.87
2019-05-20T12:30:16.819Z,13.75
2019-05-20T12:32:47.598Z,14.33
2019-05-20T12:35:18.452Z,14.73
2019-05-20T12:37:49.185Z,14.55
2019-05-20T12:40:20.013Z,16.13
2019-05-20T12:42:50.949Z,13.63
2019-05-20T12:45:21.985Z,15.53
2019-05-20T12:47:52.711Z,15.00
2019-05-20T12:50:24.104Z,14.30
2019-05-20T12:52:54.975Z,13.83
2019-05-20T12:55:25.718Z,14.53
2019-05-20T12:57:57.489Z,12.97
2019-05-20T13:00:28.132Z,13.60
2019-05-20T13:02:59.027Z,13.33
2019-05-20T13:05:29.769Z,12.73
2019-05-20T13:08:00.516Z,13.07
2019-05-20T13:10:32.453Z,12.40
2019-05-20T13:13:03.656Z,12.23
2019-05-20T13:15:34.449Z,12.50
2019-05-20T13:18:05.612Z,13.75
2019-05-20T13:20:36.387Z,11.83
2019-05-20T13:23:09.815Z,11.90
2019-05-20T13:25:39.698Z,12.73
2019-05-20T13:28:10.419Z,13.03
2019-05-20T13:30:41.139Z,12.47
2019-05-20T13:33:11.899Z,12.78
2019-05-20T13:35:42.681Z,12.97
2019-05-20T13:38:13.416Z,12.53
2019-05-20T13:40:47.117Z,12.10
2019-05-20T13:43:16.604Z,12.97
2019-05-20T13:45:48.368Z,12.17
2019-05-20T13:48:19.370Z,11.57
2019-05-20T13:50:50.211Z,11.10
2019-05-20T13:53:21.036Z,11.70
2019-05-20T13:55:51.862Z,11.37
2019-05-20T13:58:22.589Z,11.47
2019-05-20T14:00:53.474Z,10.83
2019-05-20T14:03:24.357Z,11.80
2019-05-20T14:05:55.135Z,11.77
2019-05-20T14:08:25.960Z,10.60
2019-05-20T14:11:04.063Z,11.80
2019-05-20T14:13:29.407Z,10.27
2019-05-20T14:16:00.173Z,11.80
2019-05-20T14:18:30.933Z,11.57
2019-05-20T14:21:01.830Z,10.87
2019-05-20T14:23:32.648Z,12.67
2019-05-20T14:26:05.133Z,14.65
2019-05-20T14:28:35.898Z,13.90
2019-05-20T14:31:06.662Z,13.13
2019-05-20T14:33:37.528Z,14.07
2019-05-20T14:36:08.322Z,10.93
2019-05-20T14:38:40.178Z,11.07
2019-05-20T14:41:21.056Z,12.93
2019-05-20T14:43:43.340Z,12.50
2019-05-20T14:46:14.175Z,11.60
2019-05-20T14:48:44.859Z,15.17
2019-05-20T14:51:15.696Z,11.47
2019-05-20T14:53:46.507Z,11.17
2019-05-20T14:56:17.183Z,10.75
2019-05-20T14:58:47.946Z,10.43
2019-05-20T15:01:18.884Z,10.60
2019-05-20T15:03:49.539Z,10.60
2019-05-20T15:06:20.345Z,10.30
2019-05-20T15:08:51.197Z,10.47
2019-05-20T15:11:37.029Z,10.05
2019-05-20T15:13:54.451Z,10.17
2019-05-20T15:16:25.147Z,11.60
2019-05-20T15:18:55.986Z,8.90
2019-05-20T15:21:29.456Z,11.30
2019-05-20T15:24:00.230Z,10.23
2019-05-20T15:26:31.254Z,9.90
2019-05-20T15:29:03.447Z,9.67
2019-05-20T15:31:35.801Z,10.27
2019-05-20T15:34:06.709Z,9.83
2019-05-20T15:36:37.820Z,10.33
2019-05-20T15:39:08.595Z,9.77
2019-05-20T15:41:39.482Z,10.10
2019-05-20T15:44:11.467Z,10.10
2019-05-20T15:46:42.755Z,10.60
2019-05-20T15:49:13.745Z,11.60
2019-05-20T15:51:44.522Z,11.00
2019-05-20T15:54:15.274Z,9.83
2019-05-20T15:56:46.218Z,10.70
2019-05-20T15:59:17.015Z,10.97
2019-05-20T16:01:47.848Z,12.13
2019-05-20T16:04:18.544Z,10.17
2019-05-20T16:06:49.428Z,11.13
2019-05-20T16:09:23.491Z,10.30
2019-05-20T16:11:54.465Z,11.17
2019-05-20T16:14:25.133Z,12.40
2019-05-20T16:16:56.079Z,12.53
2019-05-20T16:19:26.815Z,13.37
2019-05-20T16:21:57.559Z,12.20
2019-05-20T16:24:28.502Z,13.90
2019-05-20T16:26:59.338Z,12.47
2019-05-20T16:29:30.254Z,12.80
2019-05-20T16:32:01.147Z,12.80
2019-05-20T16:34:33.055Z,11.33
2019-05-20T16:37:03.906Z,11.87
2019-05-20T16:39:35.081Z,11.83
2019-05-20T16:42:05.836Z,11.07
2019-05-20T16:44:36.931Z,12.30
2019-05-20T16:47:07.785Z,11.23
2019-05-20T16:49:38.659Z,10.37
2019-05-20T16:52:09.728Z,10.33
2019-05-20T16:54:40.822Z,9.80
2019-05-20T16:57:11.702Z,9.38
2019-05-20T16:59:42.539Z,9.20
2019-05-20T17:02:13.325Z,9.30
2019-05-20T17:04:44.074Z,9.33
2019-05-20T17:07:15.010Z,9.30
2019-05-20T17:09:45.879Z,9.20
2019-05-20T17:12:16.632Z,9.13
2019-05-20T17:14:47.410Z,9.37
2019-05-20T17:17:18.260Z,8.80
2019-05-20T17:19:49.207Z,10.28
2019-05-20T17:22:20.890Z,8.23
2019-05-20T17:24:51.657Z,8.20
2019-05-20T17:27:22.388Z,8.23
2019-05-20T17:29:53.061Z,7.83
2019-05-20T17:32:23.860Z,8.30
2019-05-20T17:34:54.749Z,7.77
2019-05-20T17:37:25.696Z,8.77
2019-05-20T17:39:56.543Z,8.33
2019-05-20T17:42:27.445Z,7.87
2019-05-20T17:44:58.287Z,8.23
2019-05-20T17:47:28.985Z,9.30
2019-05-20T17:49:59.738Z,7.13
2019-05-20T17:52:30.489Z,6.93
2019-05-20T17:55:01.306Z,6.90
2019-05-20T17:57:32.271Z,7.20
2019-05-20T18:00:03.456Z,7.07
2019-05-20T18:02:35.514Z,7.17
2019-05-20T18:05:07.596Z,6.67
2019-05-20T18:07:38.487Z,6.85
2019-05-20T18:10:10.511Z,6.40
2019-05-20T18:12:41.276Z,5.97
2019-05-20T18:15:13.703Z,6.90
2019-05-20T18:17:44.894Z,6.97
2019-05-20T18:20:16.661Z,6.92
2019-05-20T18:22:47.508Z,6.40
2019-05-20T18:25:18.408Z,7.25
2019-05-20T18:27:49.191Z,6.73
2019-05-20T18:30:20.217Z,6.93
2019-05-20T18:32:51.206Z,6.30
2019-05-20T18:35:22.225Z,6.95
2019-05-20T18:37:53.481Z,6.40
2019-05-20T18:40:24.262Z,6.70
2019-05-20T18:42:55.059Z,6.90
2019-05-20T18:45:26.036Z,6.20
2019-05-20T18:47:57.278Z,6.77
2019-05-20T18:50:28.863Z,6.97
2019-05-20T18:52:59.537Z,7.03
2019-05-20T18:55:30.318Z,6.50
2019-05-20T18:58:01.077Z,6.73
2019-05-20T19:00:31.995Z,5.80
2019-05-20T19:03:02.936Z,6.53
2019-05-20T19:05:34.104Z,7.17
2019-05-20T19:08:05.339Z,6.05
2019-05-20T19:10:36.459Z,6.87
2019-05-20T19:13:07.388Z,6.08
2019-05-20T19:15:38.327Z,7.03
2019-05-20T19:18:09.366Z,6.55
2019-05-20T19:20:40.036Z,5.80
2019-05-20T19:23:10.860Z,5.60
2019-05-20T19:25:43.924Z,6.07
2019-05-20T19:28:15.711Z,5.93
2019-05-20T19:30:46.554Z,6.10
2019-05-20T19:33:17.753Z,6.57
2019-05-20T19:35:48.824Z,6.00
2019-05-20T19:38:19.744Z,6.12
2019-05-20T19:40:50.558Z,5.80
2019-05-20T19:43:21.393Z,6.00
2019-05-20T19:45:52.242Z,5.73
2019-05-20T19:48:23.006Z,5.60
2019-05-20T19:50:53.799Z,5.60
2019-05-20T19:53:24.814Z,5.87
2019-05-20T19:55:55.527Z,5.17
2019-05-20T19:58:26.459Z,5.77
2019-05-20T20:00:57.199Z,5.57
2019-05-20T20:03:28.877Z,5.37
2019-05-20T20:05:59.591Z,5.67
2019-05-20T20:08:30.380Z,5.03
2019-05-20T20:11:01.120Z,4.63
2019-05-20T20:13:34.048Z,5.17
2019-05-20T20:16:05.258Z,4.67
2019-05-20T20:18:37.339Z,4.47
2019-05-20T20:21:08.129Z,4.83
2019-05-20T20:23:38.965Z,4.97
2019-05-20T20:26:09.897Z,4.67
2019-05-20T20:28:42.585Z,4.80
2019-05-20T20:31:13.283Z,4.55
2019-05-20T20:33:44.109Z,4.17
2019-05-20T20:36:14.855Z,4.47
2019-05-20T20:38:45.670Z,4.40
2019-05-20T20:41:16.570Z,4.58
2019-05-20T20:43:47.547Z,4.63
2019-05-20T20:46:18.270Z,4.50
2019-05-20T20:48:49.039Z,4.10
2019-05-20T20:51:19.786Z,4.65
2019-05-20T20:53:50.618Z,4.03
2019-05-20T20:56:25.151Z,4.20
2019-05-20T20:58:53.773Z,3.92
2019-05-20T21:01:24.522Z,4.40
2019-05-20T21:03:55.316Z,3.60
2019-05-20T21:06:26.368Z,4.13
2019-05-20T21:08:57.106Z,3.67
2019-05-20T21:11:27.820Z,3.83
2019-05-20T21:13:58.565Z,3.40
2019-05-20T21:16:29.365Z,3.70
2019-05-20T21:19:00.051Z,4.17
2019-05-20T21:21:30.790Z,3.33
2019-05-20T21:24:01.500Z,3.57
2019-05-20T21:26:32.326Z,3.90
2019-05-20T21:29:03.321Z,4.20
2019-05-20T21:31:34.055Z,3.73
2019-05-20T21:34:05.344Z,3.23
2019-05-20T21:36:46.849Z,3.57
2019-05-20T21:39:08.634Z,4.03
2019-05-20T21:41:39.468Z,4.00
2019-05-20T21:44:10.252Z,3.85
2019-05-20T21:46:41.030Z,3.80
2019-05-20T21:49:11.761Z,3.90
2019-05-20T21:51:42.444Z,4.40
2019-05-20T21:54:13.194Z,4.10
2019-05-20T21:56:43.896Z,4.20
2019-05-20T21:59:14.617Z,4.37
2019-05-20T22:01:45.433Z,4.50
2019-05-20T22:04:16.084Z,4.60
2019-05-20T22:06:47.029Z,4.53
2019-05-20T22:09:17.739Z,4.72
2019-05-20T22:11:48.485Z,4.07
2019-05-20T22:14:19.278Z,3.83
2019-05-20T22:16:50.062Z,4.10
2019-05-20T22:19:20.760Z,5.43
2019-05-20T22:22:22.782Z,4.43
2019-05-20T22:24:53.884Z,4.17
2019-05-20T22:27:24.572Z,6.00
2019-05-20T22:29:55.250Z,4.50
2019-05-20T22:32:27.143Z,4.83
2019-05-20T22:34:57.768Z,5.83
2019-05-20T22:37:28.523Z,5.60
2019-05-20T22:39:59.277Z,7.17
2019-05-20T22:42:29.957Z,4.63
2019-05-20T22:45:00.651Z,4.93
2019-05-20T22:47:31.482Z,5.27
2019-05-20T22:50:02.276Z,5.70
2019-05-20T22:52:33.029Z,6.00
2019-05-20T22:55:03.929Z,5.60
2019-05-20T22:57:34.672Z,6.27
2019-05-20T23:00:06.380Z,7.43
2019-05-20T23:02:38.726Z,6.63
2019-05-20T23:05:09.794Z,8.50
2019-05-20T23:07:41.131Z,6.70
2019-05-20T23:10:11.938Z,11.40
2019-05-20T23:12:42.759Z,6.90
2019-05-20T23:15:15.800Z,7.87
2019-05-20T23:17:46.726Z,9.43
2019-05-20T23:20:17.711Z,8.73
2019-05-20T23:22:48.464Z,11.40
2019-05-20T23:25:19.242Z,9.23
2019-05-20T23:27:50.096Z,13.37
2019-05-20T23:30:20.952Z,11.60
2019-05-20T23:32:51.891Z,9.90
2019-05-20T23:35:22.714Z,11.57
2019-05-20T23:37:53.491Z,12.77
2019-05-20T23:40:24.284Z,11.57
2019-05-20T23:42:55.082Z,18.23
2019-05-20T23:45:25.861Z,12.90
2019-05-20T23:47:56.638Z,16.77
2019-05-20T23:50:28.727Z,18.20
2019-05-20T23:53:00.680Z,14.60
2019-05-20T23:55:31.407Z,15.83
2019-05-20T23:58:02.206Z,15.60
